Time;durP1;ratioP1;P1;durP2;ratioP2;P2;SDS_P1;SDS_P2;PMS_P1;PMS_P2;Temp;Humidity;BMP_temperature;BMP_pressure;BME280_temperature;BME280_humidity;BME280_pressure;Samples;Min_cycle;Max_cycle;Signal;HPM_P1;HPM_P2
2021/07/27 00:01:58;;;;;;;;;25.50;22.75;;;;;20.21;82.18;101063.84;5075504;27;45634;-69
2021/07/27 00:04:23;;;;;;;;;25.25;24.25;;;;;20.20;82.53;101060.31;5075550;27;45477;-70
2021/07/27 00:06:49;;;;;;;;;26.50;26.00;;;;;20.21;82.06;101058.50;5075920;27;45321;-70
2021/07/27 00:09:14;;;;;;;;;30.25;25.75;;;;;20.18;81.96;101056.91;5092477;27;59775;-70
2021/07/27 00:11:39;;;;;;;;;26.75;22.75;;;;;20.20;82.07;101060.31;5074245;27;45852;-70
2021/07/27 00:14:05;;;;;;;;;29.00;24.25;;;;;20.17;81.82;101067.72;5073180;27;58346;-70
2021/07/27 00:16:30;;;;;;;;;31.00;29.25;;;;;20.18;81.50;101067.59;5072957;28;45409;-70
2021/07/27 00:18:55;;;;;;;;;27.00;22.75;;;;;20.16;82.27;101063.34;5072631;27;46476;-70
2021/07/27 00:21:21;;;;;;;;;24.25;22.25;;;;;20.15;81.99;101061.63;5077293;27;47987;-70
2021/07/27 00:23:46;;;;;;;;;25.50;21.50;;;;;20.14;80.87;101057.25;5073737;28;45572;-69
2021/07/27 00:26:13;;;;;;;;;24.50;19.75;;;;;20.08;81.07;101051.44;5072808;28;48142;-70
2021/07/27 00:28:39;;;;;;;;;30.00;24.50;;;;;20.12;81.37;101056.53;5073517;27;46144;-70
2021/07/27 00:31:05;;;;;;;;;19.50;19.25;;;;;20.08;80.79;101056.78;5075052;27;45299;-70
2021/07/27 00:33:30;;;;;;;;;28.00;23.25;;;;;20.10;80.28;101051.34;5076218;27;45668;-70
2021/07/27 00:35:55;;;;;;;;;26.50;24.25;;;;;20.08;80.37;101045.25;5075962;27;45551;-70
2021/07/27 00:38:22;;;;;;;;;22.00;20.50;;;;;20.09;80.58;101038.94;5074614;28;46191;-70
2021/07/27 00:40:48;;;;;;;;;27.00;24.25;;;;;20.07;80.60;101032.88;5074234;28;45560;-70
2021/07/27 00:43:15;;;;;;;;;22.75;20.75;;;;;20.04;80.24;101033.97;5073129;27;45498;-70
2021/07/27 00:45:41;;;;;;;;;22.50;20.75;;;;;20.04;80.21;101038.44;5074961;28;45454;-70
2021/07/27 00:48:08;;;;;;;;;24.00;21.50;;;;;20.01;79.89;101036.88;5076466;27;46280;-70
2021/07/27 00:50:34;;;;;;;;;21.00;19.50;;;;;20.00;80.33;101034.34;5074608;28;45510;-70
2021/07/27 00:53:02;;;;;;;;;25.75;22.25;;;;;19.98;80.78;101029.09;5074482;27;45452;-70
2021/07/27 00:55:28;;;;;;;;;23.50;18.00;;;;;19.96;80.72;101030.22;5074528;27;45623;-70
2021/07/27 00:57:54;;;;;;;;;20.75;19.75;;;;;19.93;80.89;101028.63;5075145;28;46894;-70
2021/07/27 01:00:21;;;;;;;;;19.25;19.25;;;;;19.90;81.13;101031.53;5076451;27;46109;-70
2021/07/27 01:02:46;;;;;;;;;21.50;18.75;;;;;19.88;81.03;101038.78;5074582;27;45333;-70
2021/07/27 01:05:12;;;;;;;;;23.50;22.00;;;;;19.86;81.40;101030.06;5072947;27;45495;-70
2021/07/27 01:07:38;;;;;;;;;21.00;18.75;;;;;19.86;81.06;101032.75;5073242;27;45488;-70
2021/07/27 01:10:05;;;;;;;;;22.50;22.00;;;;;19.85;81.88;101033.72;5074017;27;45441;-71
2021/07/27 01:12:31;;;;;;;;;23.75;22.00;;;;;19.85;81.64;101040.88;5075033;27;45303;-70
2021/07/27 01:14:56;;;;;;;;;21.25;19.50;;;;;19.84;81.53;101042.69;5074885;28;45620;-70
2021/07/27 01:17:22;;;;;;;;;22.50;19.75;;;;;19.83;81.77;101046.28;5074056;27;46740;-69
2021/07/27 01:38:59;;;;;;;;;26.50;24.25;;;;;19.73;82.17;101031.97;5073238;28;45546;-70
2021/07/27 01:43:51;;;;;;;;;22.75;22.00;;;;;19.70;81.92;101032.22;5072197;27;45541;-69
2021/07/27 01:46:17;;;;;;;;;22.50;20.25;;;;;19.69;81.94;101020.72;5072353;27;45398;-70
2021/07/27 01:48:44;;;;;;;;;25.75;20.75;;;;;19.68;81.87;101021.69;5073707;27;46791;-70
2021/07/27 01:51:10;;;;;;;;;23.50;21.50;;;;;19.69;81.39;101023.38;5075751;27;45398;-70
2021/07/27 01:53:55;;;;;;;;;27.50;23.50;;;;;19.71;81.48;101016.09;5073587;28;45579;-70
2021/07/27 01:56:23;;;;;;;;;22.75;21.00;;;;;19.70;81.94;101019.72;5073496;28;47735;-70
2021/07/27 01:58:49;;;;;;;;;23.00;18.75;;;;;19.69;81.97;101012.72;5072993;27;46807;-70
2021/07/27 02:01:15;;;;;;;;;22.50;19.25;;;;;19.68;81.67;101005.69;5059133;27;45787;-70
2021/07/27 02:03:41;;;;;;;;;24.75;23.00;;;;;19.67;81.84;101003.97;5073728;27;45345;-70
2021/07/27 02:06:06;;;;;;;;;22.00;19.25;;;;;19.66;82.04;101012.94;5075575;28;45379;-70
2021/07/27 02:08:31;;;;;;;;;20.50;18.25;;;;;19.67;81.71;101011.97;5072272;28;45531;-70
2021/07/27 02:11:04;;;;;;;;;23.00;21.75;;;;;19.68;81.77;101008.34;5073626;27;45381;-70
2021/07/27 02:13:31;;;;;;;;;22.00;19.00;;;;;19.67;80.74;100998.63;5073279;28;45530;-70
2021/07/27 02:15:57;;;;;;;;;27.50;23.50;;;;;19.67;80.95;101003.09;5073772;27;45303;-69
2021/07/27 02:18:23;;;;;;;;;17.75;17.00;;;;;19.67;81.23;101006.63;5069549;28;47080;-70
2021/07/27 02:20:52;;;;;;;;;19.50;19.00;;;;;19.68;80.88;101007.47;5073024;27;45618;-70
2021/07/27 02:23:17;;;;;;;;;20.25;18.50;;;;;19.67;80.70;101000.44;5072191;28;45494;-69
2021/07/27 02:25:43;;;;;;;;;19.00;16.75;;;;;19.67;81.03;101000.44;5073307;27;45457;-70
2021/07/27 02:28:12;;;;;;;;;21.25;19.50;;;;;19.64;80.56;100998.88;5073246;27;45806;-70
2021/07/27 02:30:41;;;;;;;;;24.00;20.75;;;;;19.66;80.72;100999.59;5074049;27;46026;-70
2021/07/27 02:33:07;;;;;;;;;23.50;20.00;;;;;19.66;80.46;100993.41;5073293;28;45565;-70
2021/07/27 02:35:32;;;;;;;;;21.75;19.25;;;;;19.67;80.95;100995.97;5072590;28;45464;-70
2021/07/27 02:37:58;;;;;;;;;19.00;17.00;;;;;19.65;80.34;100997.91;5072495;28;47829;-70
2021/07/27 02:40:23;;;;;;;;;19.75;18.00;;;;;19.63;80.21;100994.53;5071626;27;45399;-70
2021/07/27 02:42:49;;;;;;;;;21.25;17.50;;;;;19.66;80.79;100996.94;5071891;28;45470;-70
2021/07/27 02:45:14;;;;;;;;;18.25;15.75;;;;;19.65;80.55;100987.25;5075146;27;45384;-70
2021/07/27 02:47:41;;;;;;;;;22.00;19.00;;;;;19.65;79.82;100984.56;5074860;27;46566;-70
2021/07/27 02:50:08;;;;;;;;;19.00;17.50;;;;;19.67;79.63;100993.28;5075889;27;45242;-70
2021/07/27 02:52:34;;;;;;;;;19.00;18.25;;;;;19.68;80.20;100994.13;5077020;27;45310;-69
2021/07/27 02:54:59;;;;;;;;;21.00;19.25;;;;;19.69;79.83;100987.88;5076111;27;45341;-69
2021/07/27 02:57:24;;;;;;;;;23.00;17.50;;;;;19.68;80.89;100995.00;5078510;27;46606;-70
2021/07/27 02:59:50;;;;;;;;;24.00;19.25;;;;;19.69;80.35;100990.53;5076353;27;45420;-70
2021/07/27 03:02:43;;;;;;;;;20.00;18.25;;;;;19.68;79.44;100995.00;5074779;27;45476;-70
2021/07/27 03:05:09;;;;;;;;;20.25;18.75;;;;;19.67;79.90;101001.28;5074553;27;45409;-69
2021/07/27 03:07:49;;;;;;;;;22.50;20.25;;;;;19.66;80.12;100994.25;5076397;27;45974;-69
2021/07/27 03:12:53;;;;;;;;;19.00;19.00;;;;;19.67;79.19;100987.97;5076263;27;45627;-70
2021/07/27 03:15:19;;;;;;;;;22.75;20.00;;;;;19.67;79.62;100981.78;5078357;27;45440;-70
2021/07/27 03:17:46;;;;;;;;;21.25;17.50;;;;;19.66;79.25;100986.25;5076210;28;46627;-70
2021/07/27 03:20:17;;;;;;;;;18.75;17.50;;;;;19.56;79.18;100972.75;5074182;27;45390;-70
2021/07/27 03:22:43;;;;;;;;;21.25;18.75;;;;;19.65;79.31;100981.06;5076179;27;45636;-70
2021/07/27 03:25:10;;;;;;;;;20.25;17.75;;;;;19.66;79.32;100980.09;5076265;27;45625;-69
2021/07/27 03:27:39;;;;;;;;;20.50;18.50;;;;;19.67;79.56;100979.13;5075750;28;47244;-69
2021/07/27 03:30:04;;;;;;;;;20.50;16.50;;;;;19.66;79.41;100974.75;5077476;27;45870;-70
2021/07/27 03:32:32;;;;;;;;;15.75;15.25;;;;;19.63;79.14;100969.66;5075904;27;45337;-70
2021/07/27 03:34:57;;;;;;;;;20.25;17.00;;;;;19.67;78.92;100971.13;5075323;27;45489;-70
2021/07/27 03:37:23;;;;;;;;;27.25;20.00;;;;;19.67;79.02;100974.63;5075387;28;55494;-69
2021/07/27 03:39:48;;;;;;;;;18.75;17.00;;;;;19.63;79.12;100970.53;5073377;28;57887;-70
2021/07/27 03:42:13;;;;;;;;;21.50;19.00;;;;;19.62;79.18;100958.13;5076652;28;45447;-69
2021/07/27 03:44:39;;;;;;;;;21.00;18.00;;;;;19.63;79.37;100962.53;5073948;27;52188;-70
2021/07/27 03:47:04;;;;;;;;;21.25;19.25;;;;;19.62;79.31;100952.81;5070350;27;60582;-69
2021/07/27 03:49:29;;;;;;;;;25.67;21.00;;;;;19.58;79.69;100946.00;5075148;27;45394;-69
2021/07/27 03:52:04;;;;;;;;;22.00;17.50;;;;;19.53;79.25;100942.84;5076169;27;45405;-69
2021/07/27 03:54:32;;;;;;;;;18.50;17.25;;;;;19.51;79.49;100945.59;5073640;28;45529;-69
2021/07/27 03:56:58;;;;;;;;;17.50;15.50;;;;;19.50;79.67;100948.41;5076000;27;46179;-69
2021/07/27 03:59:23;;;;;;;;;20.50;19.25;;;;;19.48;79.61;100940.53;5074017;27;45365;-69
2021/07/27 04:01:50;;;;;;;;;18.75;15.50;;;;;19.47;79.54;100940.63;5075811;27;45478;-69
2021/07/27 04:04:19;;;;;;;;;20.00;18.50;;;;;19.49;79.96;100949.38;5075010;27;45292;-69
2021/07/27 04:06:46;;;;;;;;;24.00;18.75;;;;;19.50;79.54;100943.91;5075626;27;45525;-69
2021/07/27 04:09:11;;;;;;;;;21.00;19.75;;;;;19.51;79.84;100939.44;5076891;27;45755;-69
2021/07/27 04:11:36;;;;;;;;;25.00;20.75;;;;;19.50;79.95;100943.91;5074896;28;56973;-69
2021/07/27 04:14:03;;;;;;;;;20.75;17.25;;;;;19.49;80.56;100944.03;5073980;28;58307;-69
2021/07/27 04:16:29;;;;;;;;;19.75;17.00;;;;;19.48;79.69;100937.84;5075135;27;46373;-69
2021/07/27 04:18:54;;;;;;;;;22.00;19.25;;;;;19.48;79.85;100945.84;5073666;27;45532;-69
2021/07/27 04:21:19;;;;;;;;;19.50;16.25;;;;;19.46;79.37;100933.59;5076829;28;45469;-69
2021/07/27 04:23:44;;;;;;;;;22.25;20.00;;;;;19.47;79.42;100941.50;5074762;28;51253;-70
2021/07/27 04:26:10;;;;;;;;;18.25;16.25;;;;;19.45;80.08;100937.25;5074952;28;54992;-69
2021/07/27 04:28:35;;;;;;;;;19.25;17.25;;;;;19.47;79.48;100951.28;5074541;27;56481;-70
2021/07/27 04:31:00;;;;;;;;;17.50;15.75;;;;;19.45;79.63;100947.91;5075187;28;47429;-69
2021/07/27 04:33:26;;;;;;;;;22.75;20.25;;;;;19.47;79.91;100960.16;5076565;27;45351;-70
2021/07/27 04:35:51;;;;;;;;;21.33;18.33;;;;;19.47;79.73;100960.16;5074979;28;48977;-69
2021/07/27 04:38:16;;;;;;;;;20.33;18.67;;;;;19.46;79.93;100955.78;5071977;27;64264;-70
2021/07/27 04:40:41;;;;;;;;;24.25;20.00;;;;;19.47;79.92;100957.50;5074580;28;48941;-69
2021/07/27 04:43:07;;;;;;;;;18.00;16.00;;;;;19.52;79.84;100959.78;5074284;28;59714;-69
2021/07/27 04:45:32;;;;;;;;;23.00;17.75;;;;;19.52;79.90;100954.44;5075951;27;45742;-69
2021/07/27 04:47:57;;;;;;;;;21.50;18.00;;;;;19.58;79.93;100953.16;5074780;27;45390;-69
2021/07/27 04:50:23;;;;;;;;;16.25;15.50;;;;;19.62;79.56;100949.28;5074696;28;45493;-69
2021/07/27 04:52:59;;;;;;;;;20.25;18.75;;;;;19.66;79.66;100938.28;5074899;28;45463;-70
2021/07/27 04:55:25;;;;;;;;;17.25;17.00;;;;;19.70;79.11;100928.22;5074867;27;45460;-70
2021/07/27 04:57:50;;;;;;;;;20.75;20.25;;;;;19.70;79.49;100928.22;5074113;27;45428;-69
2021/07/27 05:00:16;;;;;;;;;23.25;18.50;;;;;19.71;78.90;100930.75;5075579;28;45418;-70
2021/07/27 05:02:41;;;;;;;;;19.50;15.25;;;;;19.71;79.35;100932.59;5072668;27;45769;-69
2021/07/27 05:05:07;;;;;;;;;16.25;15.50;;;;;19.71;78.93;100935.25;5073315;27;59395;-69
2021/07/27 05:07:32;;;;;;;;;22.00;19.25;;;;;19.68;78.70;100932.81;5074377;27;45476;-69
2021/07/27 05:10:00;;;;;;;;;20.00;18.25;;;;;19.68;79.37;100940.81;5073728;27;46981;-69
2021/07/27 05:12:25;;;;;;;;;21.25;20.00;;;;;19.64;78.45;100948.22;5076227;27;45434;-69
2021/07/27 05:14:51;;;;;;;;;18.75;14.25;;;;;19.63;78.84;100948.31;5073167;28;67202;-70
2021/07/27 05:17:16;;;;;;;;;19.75;16.75;;;;;19.63;78.85;100937.66;5072789;27;49113;-69
2021/07/27 05:19:51;;;;;;;;;21.50;20.00;;;;;19.67;78.83;100931.97;5074142;27;45570;-69
2021/07/27 05:22:17;;;;;;;;;19.25;17.00;;;;;19.68;78.75;100932.81;5074086;27;45302;-70
2021/07/27 05:24:42;;;;;;;;;18.00;17.50;;;;;19.65;78.55;100944.59;5074112;27;46008;-69
2021/07/27 05:27:08;;;;;;;;;25.75;21.50;;;;;19.65;78.51;100952.56;5075716;27;51297;-69
2021/07/27 05:29:33;;;;;;;;;19.00;18.25;;;;;19.65;78.87;100959.72;5073898;28;45410;-69
2021/07/27 05:32:01;;;;;;;;;20.75;17.50;;;;;19.66;78.73;100961.44;5074014;28;45789;-70
2021/07/27 05:34:26;;;;;;;;;19.50;17.50;;;;;19.70;79.00;100968.22;5073354;27;46667;-70
2021/07/27 05:36:52;;;;;;;;;20.50;20.00;;;;;19.71;78.38;100962.75;5073145;27;45370;-69
2021/07/27 05:39:17;;;;;;;;;19.75;17.75;;;;;19.73;79.01;100955.50;5075742;27;45498;-69
2021/07/27 05:41:42;;;;;;;;;19.25;17.75;;;;;19.78;78.30;100960.47;5072118;28;51401;-69
2021/07/27 05:44:08;;;;;;;;;21.25;19.25;;;;;19.81;77.97;100965.56;5073229;27;47744;-70
2021/07/27 05:46:33;;;;;;;;;18.75;16.25;;;;;19.76;78.22;100965.06;5073439;28;45445;-70
2021/07/27 05:48:58;;;;;;;;;22.25;18.00;;;;;19.80;77.95;100979.88;5074012;27;45635;-70
2021/07/27 05:51:26;;;;;;;;;18.00;15.75;;;;;19.85;78.41;100982.19;5075539;27;45334;-70
2021/07/27 05:53:51;;;;;;;;;22.25;18.00;;;;;19.86;77.80;100970.53;5073850;28;46173;-69
2021/07/27 05:56:16;;;;;;;;;25.00;19.75;;;;;19.93;77.92;100979.75;5072337;27;45393;-69
2021/07/27 05:58:42;;;;;;;;;18.25;17.00;;;;;19.97;77.88;100978.56;5073207;27;45535;-70
2021/07/27 06:01:07;;;;;;;;;16.75;16.75;;;;;19.97;77.47;100982.06;5070377;28;45541;-70
2021/07/27 06:03:32;;;;;;;;;19.50;16.00;;;;;19.94;77.37;101001.00;5071512;28;45425;-70
2021/07/27 06:05:58;;;;;;;;;20.00;17.75;;;;;19.93;77.49;101001.94;5074272;28;49008;-69
2021/07/27 06:08:23;;;;;;;;;23.50;22.00;;;;;19.90;77.88;100994.19;5073457;28;52349;-69
2021/07/27 06:10:48;;;;;;;;;21.00;16.25;;;;;19.93;77.77;101006.44;5073127;28;52783;-70
2021/07/27 06:13:13;;;;;;;;;23.50;19.00;;;;;19.97;77.85;100998.06;5072471;27;57306;-70
2021/07/27 06:15:39;;;;;;;;;20.75;19.50;;;;;19.98;77.44;101004.25;5074227;27;47550;-69
2021/07/27 06:18:04;;;;;;;;;18.75;17.00;;;;;20.00;77.33;101007.66;5072502;28;55089;-69
2021/07/27 06:20:30;;;;;;;;;21.50;21.00;;;;;20.04;77.40;101014.44;5071890;28;45466;-69
2021/07/27 06:22:55;;;;;;;;;19.25;17.50;;;;;20.06;76.15;101021.38;5069503;28;47222;-70
2021/07/27 06:25:20;;;;;;;;;22.50;17.00;;;;;20.06;76.14;101013.38;5072899;27;45591;-71
2021/07/27 06:27:45;;;;;;;;;22.75;20.00;;;;;20.12;76.49;101008.53;5070622;27;45569;-71
2021/07/27 06:30:12;;;;;;;;;21.25;16.50;;;;;20.14;76.45;101004.75;5073894;27;45409;-71
2021/07/27 06:32:38;;;;;;;;;22.00;18.25;;;;;20.20;75.81;101006.97;5071789;28;47276;-71
2021/07/27 06:35:03;;;;;;;;;19.75;18.75;;;;;20.24;75.98;101008.38;5073315;27;45419;-71
2021/07/27 06:37:29;;;;;;;;;23.50;18.75;;;;;20.26;75.36;101000.28;5073181;27;45365;-71
2021/07/27 06:39:54;;;;;;;;;21.75;16.00;;;;;20.23;75.47;101004.03;5071632;27;46241;-70
2021/07/27 06:42:20;;;;;;;;;16.50;15.50;;;;;20.24;74.95;101007.53;5073783;27;45687;-70
2021/07/27 06:44:45;;;;;;;;;21.50;16.00;;;;;20.14;75.60;100999.41;5072514;28;45391;-70
2021/07/27 06:47:10;;;;;;;;;19.50;18.50;;;;;20.19;75.90;101015.06;5071453;28;48683;-69
2021/07/27 06:49:36;;;;;;;;;26.00;17.25;;;;;20.20;75.74;101009.63;5068798;28;49586;-70
2021/07/27 06:52:01;;;;;;;;;21.25;17.00;;;;;20.17;74.85;101006.34;5069665;27;45756;-70
2021/07/27 06:54:26;;;;;;;;;19.25;17.00;;;;;20.15;75.09;101010.94;5074446;27;45260;-70
2021/07/27 06:56:55;;;;;;;;;19.50;17.75;;;;;20.12;74.27;101016.53;5072319;27;45394;-70
2021/07/27 06:59:23;;;;;;;;;20.25;17.25;;;;;20.06;75.57;101018.69;5069290;27;45427;-70
2021/07/27 07:01:51;;;;;;;;;20.50;18.25;;;;;20.14;76.08;101033.25;5071268;28;46522;-70
2021/07/27 07:04:17;;;;;;;;;18.25;18.00;;;;;20.24;76.13;101031.56;5071769;27;45967;-70
2021/07/27 07:06:43;;;;;;;;;17.50;17.50;;;;;20.26;75.35;101018.97;5072540;27;45325;-70
2021/07/27 07:09:08;;;;;;;;;18.50;16.75;;;;;20.28;74.98;101025.00;5090750;27;45368;-70
2021/07/27 07:11:34;;;;;;;;;22.50;17.75;;;;;20.29;74.73;101026.72;5072034;27;45602;-70
2021/07/27 07:13:59;;;;;;;;;19.50;16.00;;;;;20.29;75.56;101037.38;5071256;27;45477;-70
2021/07/27 07:16:24;;;;;;;;;21.00;17.50;;;;;20.23;75.27;101012.03;5072230;27;45591;-70
2021/07/27 07:18:50;;;;;;;;;19.75;17.75;;;;;20.35;75.35;101044.91;5072458;27;45797;-70
2021/07/27 07:21:15;;;;;;;;;23.25;19.75;;;;;20.36;74.82;101030.59;5074504;27;46122;-70
2021/07/27 07:23:41;;;;;;;;;19.75;18.00;;;;;20.47;75.05;101043.13;5072810;27;45375;-70
2021/07/27 07:26:08;;;;;;;;;17.00;17.00;;;;;20.65;74.50;101047.00;5072029;28;45503;-71
2021/07/27 07:28:35;;;;;;;;;19.25;17.50;;;;;20.85;74.91;101034.69;5072484;27;45505;-70
2021/07/27 07:31:01;;;;;;;;;21.50;17.00;;;;;21.04;73.75;101029.56;5072969;28;46624;-70
2021/07/27 07:33:26;;;;;;;;;22.00;14.50;;;;;21.18;73.96;101027.56;5074862;27;45707;-70
2021/07/27 07:35:52;;;;;;;;;24.00;20.50;;;;;21.31;73.66;101036.28;5075568;28;45431;-70
2021/07/27 07:38:17;;;;;;;;;20.75;17.75;;;;;21.39;73.03;101030.28;5074585;28;45431;-70
2021/07/27 07:40:43;;;;;;;;;20.00;17.50;;;;;21.43;72.17;101035.25;5075044;28;45574;-70
2021/07/27 07:43:08;;;;;;;;;21.25;18.25;;;;;21.46;71.67;101032.34;5075643;27;45385;-70
2021/07/27 07:45:36;;;;;;;;;21.00;17.00;;;;;21.54;71.25;101029.00;5075752;27;45280;-70
2021/07/27 07:48:01;;;;;;;;;16.50;15.50;;;;;21.67;71.25;101039.53;5076205;28;45564;-70
2021/07/27 07:50:29;;;;;;;;;18.75;16.75;;;;;21.84;71.25;101039.78;5075292;27;46571;-70
2021/07/27 07:53:03;;;;;;;;;14.50;12.75;;;;;21.99;71.02;101053.69;5074339;27;45384;-70
2021/07/27 07:55:29;;;;;;;;;21.25;21.25;;;;;22.06;70.23;101043.28;5073344;28;45493;-70
2021/07/27 07:57:55;;;;;;;;;22.50;16.50;;;;;22.12;70.08;101040.94;5075562;27;45529;-70
2021/07/27 08:00:23;;;;;;;;;19.25;16.25;;;;;22.14;69.28;101036.31;5077145;27;46042;-70
2021/07/27 08:02:50;;;;;;;;;18.00;14.50;;;;;22.05;68.59;101041.59;5075090;27;45399;-70
2021/07/27 08:05:15;;;;;;;;;17.25;16.25;;;;;21.86;69.41;101039.63;5075924;27;45604;-70
2021/07/27 08:07:40;;;;;;;;;18.50;15.75;;;;;21.76;69.10;101041.41;5075268;28;45429;-70
2021/07/27 08:10:07;;;;;;;;;17.25;17.25;;;;;21.65;69.39;101052.16;5074701;28;46216;-70
2021/07/27 08:12:32;;;;;;;;;22.25;16.00;;;;;21.50;69.79;101056.97;5076261;27;45405;-70
2021/07/27 08:14:57;;;;;;;;;17.75;15.25;;;;;21.43;70.10;101051.31;5073981;28;61499;-70
2021/07/27 08:17:23;;;;;;;;;15.25;15.00;;;;;21.40;70.62;101038.19;5074699;27;45417;-70
2021/07/27 08:19:49;;;;;;;;;18.00;15.75;;;;;21.33;69.91;101040.53;5074600;28;46699;-70
2021/07/27 08:22:14;;;;;;;;;16.75;15.50;;;;;21.29;69.87;101043.53;5075009;28;45480;-70
2021/07/27 08:24:39;;;;;;;;;13.25;12.25;;;;;21.20;70.58;101038.97;5075624;27;45461;-70
2021/07/27 08:27:08;;;;;;;;;19.50;17.75;;;;;21.18;71.08;101041.75;5109423;27;45323;-70
2021/07/27 08:29:38;;;;;;;;;15.75;15.25;;;;;21.13;71.00;101040.44;5074893;27;46644;-70
2021/07/27 08:32:10;;;;;;;;;18.75;14.25;;;;;21.10;70.68;101037.06;5073406;27;45406;-70
2021/07/27 08:34:41;;;;;;;;;20.75;18.00;;;;;21.06;70.69;101037.44;5075266;27;45514;-70
2021/07/27 08:37:07;;;;;;;;;21.00;14.50;;;;;21.07;70.59;101045.31;5074889;27;45552;-70
2021/07/27 08:39:32;;;;;;;;;18.25;16.00;;;;;21.02;71.09;101023.47;5075431;27;45509;-70
2021/07/27 08:42:02;;;;;;;;;18.00;16.50;;;;;21.13;71.41;101037.78;5075398;27;45401;-70
2021/07/27 08:44:31;;;;;;;;;19.75;15.25;;;;;21.17;71.28;101033.88;5073580;27;45449;-70
2021/07/27 08:46:58;;;;;;;;;16.50;15.50;;;;;21.23;71.02;101025.34;5074429;27;45384;-69
2021/07/27 08:49:23;;;;;;;;;20.50;15.00;;;;;21.27;71.11;101024.13;5074397;28;45404;-70
2021/07/27 08:51:49;;;;;;;;;18.00;16.00;;;;;21.28;71.93;101023.97;5072946;28;45287;-70
2021/07/27 08:54:15;;;;;;;;;23.00;17.50;;;;;21.26;71.14;101035.78;5074899;27;45291;-70
2021/07/27 08:56:48;;;;;;;;;15.75;15.50;;;;;21.25;73.17;101048.31;5074372;28;45437;-70
2021/07/27 09:02:35;;;;;;;;;19.50;14.50;;;;;21.13;72.17;101032.44;5073892;27;45625;-70
2021/07/27 09:05:12;;;;;;;;;19.25;14.75;;;;;21.14;72.05;101045.66;5074590;28;45362;-70
2021/07/27 09:07:38;;;;;;;;;16.50;13.00;;;;;21.07;71.78;101037.31;5073879;27;45942;-70
2021/07/27 09:10:23;;;;;;;;;18.50;16.00;;;;;21.02;72.89;101042.19;5072718;27;46529;-70
2021/07/27 09:13:10;;;;;;;;;19.75;16.00;;;;;21.07;72.92;101042.66;5073343;27;45831;-71
2021/07/27 09:15:41;;;;;;;;;21.00;20.50;;;;;21.12;72.91;101047.63;5072463;28;45400;-70
2021/07/27 09:18:13;;;;;;;;;19.50;15.75;;;;;21.10;72.81;101045.06;5075421;28;45392;-70
2021/07/27 09:20:43;;;;;;;;;27.25;21.25;;;;;21.10;73.03;101050.44;5072495;27;46632;-70
2021/07/27 09:23:14;;;;;;;;;24.25;20.25;;;;;21.14;72.49;101045.66;5073071;27;45285;-71
2021/07/27 09:25:47;;;;;;;;;24.00;15.50;;;;;21.14;72.65;101052.81;5073564;27;45602;-71
2021/07/27 09:28:13;;;;;;;;;24.75;18.75;;;;;21.16;72.99;101037.53;5073661;28;45617;-70
2021/07/27 09:30:40;;;;;;;;;20.50;16.50;;;;;21.27;73.31;101046.34;5074422;27;46362;-70
2021/07/27 09:33:07;;;;;;;;;23.00;19.75;;;;;21.40;73.01;101038.19;5073502;27;45399;-70
2021/07/27 09:35:33;;;;;;;;;17.75;16.50;;;;;21.54;73.24;101037.03;5071562;27;45495;-70
2021/07/27 09:38:11;;;;;;;;;19.00;16.75;;;;;21.65;72.80;101033.44;5073083;28;45273;-71
2021/07/27 09:40:51;;;;;;;;;19.00;16.25;;;;;21.76;72.67;101046.75;5073518;27;45976;-70
2021/07/27 09:43:18;;;;;;;;;22.00;21.25;;;;;21.65;71.95;101028.94;5073484;27;45705;-70
2021/07/27 09:45:49;;;;;;;;;19.75;15.50;;;;;21.70;71.95;101041.94;5073936;27;45354;-70
2021/07/27 09:48:16;;;;;;;;;18.50;18.00;;;;;21.75;72.32;101045.06;5074917;27;45500;-70
2021/07/27 09:50:44;;;;;;;;;25.25;20.00;;;;;21.73;71.80;101053.22;5071576;27;45432;-70
2021/07/27 09:53:10;;;;;;;;;18.25;17.00;;;;;21.69;71.24;101046.44;5073050;27;45726;-70
2021/07/27 09:55:37;;;;;;;;;18.50;16.00;;;;;21.62;71.99;101046.13;5073196;27;45683;-70
2021/07/27 09:58:02;;;;;;;;;25.75;21.25;;;;;21.60;72.05;101040.03;5073710;27;45448;-71
2021/07/27 10:00:28;;;;;;;;;15.50;15.00;;;;;21.61;72.32;101048.91;5074986;27;46708;-71
2021/07/27 10:02:55;;;;;;;;;20.25;17.50;;;;;21.59;71.78;101045.50;5073225;28;45450;-70
2021/07/27 10:05:22;;;;;;;;;23.25;18.25;;;;;21.54;71.90;101048.56;5072990;27;45465;-70
2021/07/27 10:07:52;;;;;;;;;18.75;16.50;;;;;21.49;71.79;101052.59;5073575;27;45533;-71
2021/07/27 10:10:18;;;;;;;;;17.00;15.50;;;;;21.44;71.93;101063.69;5071310;27;45468;-70
2021/07/27 10:12:43;;;;;;;;;17.50;14.25;;;;;21.36;71.60;101072.38;5072958;27;45551;-70
2021/07/27 10:15:14;;;;;;;;;21.50;18.50;;;;;21.25;72.45;101068.84;5090693;27;45460;-71
2021/07/27 10:17:53;;;;;;;;;16.75;15.50;;;;;21.23;72.88;101076.13;5073003;28;45496;-70
2021/07/27 10:20:26;;;;;;;;;18.50;15.75;;;;;21.26;73.15;101070.53;5071774;27;45600;-71
2021/07/27 10:22:52;;;;;;;;;25.75;19.00;;;;;21.34;73.13;101078.78;5072304;28;45827;-71
2021/07/27 10:25:17;;;;;;;;;18.75;16.50;;;;;21.40;73.17;101069.41;5073265;27;45512;-70
2021/07/27 10:28:01;;;;;;;;;19.25;18.50;;;;;21.48;73.04;101075.84;5073869;27;45356;-70
2021/07/27 10:30:31;;;;;;;;;18.75;17.00;;;;;21.56;73.25;101073.38;5070618;28;46535;-70
2021/07/27 10:32:57;;;;;;;;;14.75;14.50;;;;;21.57;71.89;101066.19;5072049;28;45424;-70
2021/07/27 10:35:31;;;;;;;;;14.25;13.50;;;;;21.55;72.20;101068.97;5072472;27;45392;-70
2021/07/27 10:38:10;;;;;;;;;20.25;14.25;;;;;21.57;72.84;101080.41;5072647;27;45326;-70
2021/07/27 10:40:36;;;;;;;;;17.25;16.75;;;;;21.55;72.87;101073.47;5072614;28;47732;-71
2021/07/27 10:43:03;;;;;;;;;22.25;18.00;;;;;21.49;72.91;101074.00;5072710;28;45421;-71
2021/07/27 10:45:29;;;;;;;;;15.25;13.75;;;;;21.52;72.57;101071.09;5075061;27;45437;-70
2021/07/27 10:47:55;;;;;;;;;17.75;16.00;;;;;21.46;72.86;101072.44;5072068;28;45520;-71
2021/07/27 10:50:34;;;;;;;;;16.75;15.75;;;;;21.38;72.06;101066.88;5069998;27;45633;-70
2021/07/27 10:53:18;;;;;;;;;18.25;15.50;;;;;21.28;72.01;101058.72;5069192;27;45305;-71
2021/07/27 10:55:50;;;;;;;;;14.75;14.75;;;;;21.38;73.19;101047.31;5068902;27;45595;-70
2021/07/27 10:58:20;;;;;;;;;18.25;16.50;;;;;21.56;73.79;101051.97;5067534;28;45813;-71
2021/07/27 11:00:45;;;;;;;;;15.00;14.00;;;;;21.71;72.59;101052.50;5070101;27;45462;-70
2021/07/27 11:03:11;;;;;;;;;21.75;16.50;;;;;21.78;72.81;101040.31;5069367;28;45515;-70
2021/07/27 11:05:36;;;;;;;;;19.25;17.25;;;;;21.86;71.79;101039.63;5067929;28;45493;-71
2021/07/27 11:08:02;;;;;;;;;18.00;16.00;;;;;21.95;72.83;101038.00;5069980;28;45793;-70
2021/07/27 11:10:29;;;;;;;;;17.75;15.75;;;;;21.92;71.43;101027.56;5071599;27;47989;-70
2021/07/27 11:12:56;;;;;;;;;15.25;13.75;;;;;21.96;72.13;101053.09;5072455;27;45894;-70
2021/07/27 11:15:26;;;;;;;;;14.50;13.25;;;;;21.91;71.46;101049.94;5075116;28;45420;-70
2021/07/27 11:18:03;;;;;;;;;15.75;15.75;;;;;21.82;71.17;101052.44;5070513;27;45449;-71
2021/07/27 11:20:32;;;;;;;;;17.00;14.00;;;;;21.80;71.61;101056.22;5069917;27;45696;-71
2021/07/27 11:23:00;;;;;;;;;15.75;13.75;;;;;21.81;72.16;101055.22;5071287;28;45397;-70
2021/07/27 11:25:27;;;;;;;;;17.25;15.00;;;;;21.85;72.25;101052.16;5071730;27;45496;-70
2021/07/27 11:27:53;;;;;;;;;18.50;13.50;;;;;21.94;71.93;101055.91;5072612;27;45715;-70
2021/07/27 11:30:22;;;;;;;;;16.25;15.00;;;;;22.00;72.79;101038.47;5073863;27;45599;-70
2021/07/27 11:32:50;;;;;;;;;19.00;13.50;;;;;22.21;71.96;101058.06;5070875;28;45725;-71
2021/07/27 11:35:25;;;;;;;;;16.75;14.50;;;;;22.33;71.61;101045.41;5071330;27;45822;-70
2021/07/27 11:38:04;;;;;;;;;15.50;14.00;;;;;22.41;71.91;101056.31;5071444;27;45341;-71